sensor_id;sensor_type;location;lat;lon;timestamp;P1;durP1;ratioP1;P2;durP2;ratioP2
17714;SDS011;8977;50.902;4.314;2023-08-17T00:01:40;3.28;;;2.55;;
17714;SDS011;8977;50.902;4.314;2023-08-17T00:04:08;3.95;;;2.80;;
17714;SDS011;8977;50.902;4.314;2023-08-17T00:06:35;4.13;;;2.00;;
17714;SDS011;8977;50.902;4.314;2023-08-17T00:09:02;2.60;;;2.40;;
17714;SDS011;8977;50.902;4.314;2023-08-17T00:11:29;2.80;;;2.45;;
17714;SDS011;8977;50.902;4.314;2023-08-17T00:13:56;2.50;;;2.30;;
17714;SDS011;8977;50.902;4.314;2023-08-17T00:16:23;4.32;;;2.53;;
17714;SDS011;8977;50.902;4.314;2023-08-17T00:18:52;6.22;;;2.70;;
17714;SDS011;8977;50.902;4.314;2023-08-17T00:21:19;3.08;;;2.72;;
17714;SDS011;8977;50.902;4.314;2023-08-17T00:23:46;6.30;;;3.22;;
17714;SDS011;8977;50.902;4.314;2023-08-17T00:26:12;3.35;;;2.60;;
17714;SDS011;8977;50.902;4.314;2023-08-17T00:28:40;3.85;;;3.08;;
17714;SDS011;8977;50.902;4.314;2023-08-17T00:31:07;8.10;;;3.10;;
17714;SDS011;8977;50.902;4.314;2023-08-17T00:33:34;3.33;;;2.97;;
17714;SDS011;8977;50.902;4.314;2023-08-17T00:36:02;5.20;;;2.90;;
17714;SDS011;8977;50.902;4.314;2023-08-17T00:38:30;4.15;;;2.50;;
17714;SDS011;8977;50.902;4.314;2023-08-17T00:40:57;3.22;;;2.92;;
17714;SDS011;8977;50.902;4.314;2023-08-17T00:43:24;4.45;;;2.80;;
17714;SDS011;8977;50.902;4.314;2023-08-17T00:45:51;3.15;;;2.70;;
17714;SDS011;8977;50.902;4.314;2023-08-17T00:48:18;3.08;;;2.78;;
17714;SDS011;8977;50.902;4.314;2023-08-17T00:50:45;3.50;;;2.75;;
17714;SDS011;8977;50.902;4.314;2023-08-17T00:53:16;4.47;;;2.60;;
17714;SDS011;8977;50.902;4.314;2023-08-17T00:55:44;4.45;;;2.90;;
17714;SDS011;8977;50.902;4.314;2023-08-17T00:58:12;3.63;;;2.80;;
17714;SDS011;8977;50.902;4.314;2023-08-17T01:00:40;3.42;;;2.75;;
17714;SDS011;8977;50.902;4.314;2023-08-17T01:03:07;4.43;;;2.80;;
17714;SDS011;8977;50.902;4.314;2023-08-17T01:05:34;5.88;;;3.20;;
17714;SDS011;8977;50.902;4.314;2023-08-17T01:08:01;3.45;;;2.97;;
17714;SDS011;8977;50.902;4.314;2023-08-17T01:10:31;5.72;;;2.97;;
17714;SDS011;8977;50.902;4.314;2023-08-17T01:13:09;3.40;;;2.92;;
17714;SDS011;8977;50.902;4.314;2023-08-17T01:15:41;3.30;;;2.72;;
17714;SDS011;8977;50.902;4.314;2023-08-17T01:18:15;3.67;;;2.60;;
17714;SDS011;8977;50.902;4.314;2023-08-17T01:20:48;3.53;;;2.88;;
17714;SDS011;8977;50.902;4.314;2023-08-17T01:23:17;4.13;;;2.80;;
17714;SDS011;8977;50.902;4.314;2023-08-17T01:25:44;4.05;;;2.45;;
17714;SDS011;8977;50.902;4.314;2023-08-17T01:28:12;4.72;;;2.63;;
17714;SDS011;8977;50.902;4.314;2023-08-17T01:30:39;2.90;;;2.65;;
17714;SDS011;8977;50.902;4.314;2023-08-17T01:33:11;6.35;;;2.88;;
17714;SDS011;8977;50.902;4.314;2023-08-17T01:35:46;3.13;;;2.50;;
17714;SDS011;8977;50.902;4.314;2023-08-17T01:38:22;3.08;;;2.65;;
17714;SDS011;8977;50.902;4.314;2023-08-17T01:40:50;2.95;;;2.42;;
17714;SDS011;8977;50.902;4.314;2023-08-17T01:43:19;2.53;;;2.33;;
17714;SDS011;8977;50.902;4.314;2023-08-17T01:45:46;5.25;;;2.80;;
17714;SDS011;8977;50.902;4.314;2023-08-17T01:48:14;3.75;;;2.80;;
17714;SDS011;8977;50.902;4.314;2023-08-17T01:50:41;3.17;;;2.55;;
17714;SDS011;8977;50.902;4.314;2023-08-17T01:53:08;3.47;;;2.78;;
17714;SDS011;8977;50.902;4.314;2023-08-17T01:55:36;3.53;;;2.60;;
17714;SDS011;8977;50.902;4.314;2023-08-17T01:58:03;4.05;;;2.97;;
17714;SDS011;8977;50.902;4.314;2023-08-17T02:00:31;4.70;;;2.72;;
17714;SDS011;8977;50.902;4.314;2023-08-17T02:02:57;4.22;;;2.60;;
17714;SDS011;8977;50.902;4.314;2023-08-17T02:05:24;4.32;;;2.40;;
17714;SDS011;8977;50.902;4.314;2023-08-17T02:07:53;3.53;;;2.60;;
17714;SDS011;8977;50.902;4.314;2023-08-17T02:10:20;2.78;;;2.33;;
17714;SDS011;8977;50.902;4.314;2023-08-17T02:12:48;5.28;;;2.63;;
17714;SDS011;8977;50.902;4.314;2023-08-17T02:15:15;3.35;;;2.40;;
17714;SDS011;8977;50.902;4.314;2023-08-17T02:17:42;2.75;;;2.53;;
17714;SDS011;8977;50.902;4.314;2023-08-17T02:20:09;7.18;;;2.50;;
17714;SDS011;8977;50.902;4.314;2023-08-17T02:22:38;5.78;;;2.53;;
17714;SDS011;8977;50.902;4.314;2023-08-17T02:25:06;4.30;;;2.60;;
17714;SDS011;8977;50.902;4.314;2023-08-17T02:27:33;3.83;;;2.33;;
17714;SDS011;8977;50.902;4.314;2023-08-17T02:30:01;5.60;;;3.33;;
17714;SDS011;8977;50.902;4.314;2023-08-17T02:32:28;3.58;;;2.58;;
17714;SDS011;8977;50.902;4.314;2023-08-17T02:34:55;2.80;;;2.50;;
17714;SDS011;8977;50.902;4.314;2023-08-17T02:37:22;3.05;;;2.67;;
17714;SDS011;8977;50.902;4.314;2023-08-17T02:39:49;3.72;;;2.63;;
17714;SDS011;8977;50.902;4.314;2023-08-17T02:42:16;5.78;;;3.15;;
17714;SDS011;8977;50.902;4.314;2023-08-17T02:44:43;3.97;;;2.55;;
17714;SDS011;8977;50.902;4.314;2023-08-17T02:47:11;4.30;;;2.78;;
17714;SDS011;8977;50.902;4.314;2023-08-17T02:49:38;3.83;;;2.63;;
17714;SDS011;8977;50.902;4.314;2023-08-17T02:52:05;5.40;;;2.70;;
17714;SDS011;8977;50.902;4.314;2023-08-17T02:54:32;5.53;;;2.53;;
17714;SDS011;8977;50.902;4.314;2023-08-17T02:56:59;5.72;;;2.75;;
17714;SDS011;8977;50.902;4.314;2023-08-17T02:59:26;4.85;;;2.70;;
17714;SDS011;8977;50.902;4.314;2023-08-17T03:01:53;5.30;;;3.17;;
17714;SDS011;8977;50.902;4.314;2023-08-17T03:04:22;6.03;;;2.67;;
17714;SDS011;8977;50.902;4.314;2023-08-17T03:06:49;3.70;;;2.65;;
17714;SDS011;8977;50.902;4.314;2023-08-17T03:09:16;3.85;;;2.40;;
17714;SDS011;8977;50.902;4.314;2023-08-17T03:11:43;4.57;;;2.70;;
17714;SDS011;8977;50.902;4.314;2023-08-17T03:14:10;2.83;;;2.33;;
17714;SDS011;8977;50.902;4.314;2023-08-17T03:16:37;3.88;;;2.55;;
17714;SDS011;8977;50.902;4.314;2023-08-17T03:19:04;3.25;;;2.67;;
17714;SDS011;8977;50.902;4.314;2023-08-17T03:21:34;3.35;;;2.60;;
17714;SDS011;8977;50.902;4.314;2023-08-17T03:24:01;3.05;;;2.50;;
17714;SDS011;8977;50.902;4.314;2023-08-17T03:26:28;3.13;;;2.58;;
17714;SDS011;8977;50.902;4.314;2023-08-17T03:28:55;6.07;;;2.70;;
17714;SDS011;8977;50.902;4.314;2023-08-17T03:31:22;6.90;;;2.85;;
17714;SDS011;8977;50.902;4.314;2023-08-17T03:33:49;4.00;;;2.70;;
17714;SDS011;8977;50.902;4.314;2023-08-17T03:36:16;2.90;;;2.42;;
17714;SDS011;8977;50.902;4.314;2023-08-17T03:38:44;2.72;;;2.53;;
17714;SDS011;8977;50.902;4.314;2023-08-17T03:41:11;2.90;;;2.60;;
17714;SDS011;8977;50.902;4.314;2023-08-17T03:43:38;2.67;;;2.17;;
17714;SDS011;8977;50.902;4.314;2023-08-17T03:46:05;3.28;;;2.53;;
17714;SDS011;8977;50.902;4.314;2023-08-17T03:48:32;3.80;;;2.42;;
17714;SDS011;8977;50.902;4.314;2023-08-17T03:50:59;3.90;;;2.60;;
17714;SDS011;8977;50.902;4.314;2023-08-17T03:53:26;4.07;;;2.60;;
17714;SDS011;8977;50.902;4.314;2023-08-17T03:55:55;6.28;;;2.80;;
17714;SDS011;8977;50.902;4.314;2023-08-17T03:58:22;2.70;;;2.35;;
17714;SDS011;8977;50.902;4.314;2023-08-17T04:00:52;4.03;;;2.53;;
17714;SDS011;8977;50.902;4.314;2023-08-17T04:03:19;4.18;;;2.63;;
17714;SDS011;8977;50.902;4.314;2023-08-17T04:05:46;4.38;;;3.00;;
17714;SDS011;8977;50.902;4.314;2023-08-17T04:08:13;4.03;;;2.28;;
17714;SDS011;8977;50.902;4.314;2023-08-17T04:10:40;4.20;;;2.55;;
17714;SDS011;8977;50.902;4.314;2023-08-17T04:13:09;5.30;;;3.25;;
17714;SDS011;8977;50.902;4.314;2023-08-17T04:15:35;4.10;;;2.80;;
17714;SDS011;8977;50.902;4.314;2023-08-17T04:18:03;4.00;;;2.67;;
17714;SDS011;8977;50.902;4.314;2023-08-17T04:20:30;5.38;;;2.67;;
17714;SDS011;8977;50.902;4.314;2023-08-17T04:22:57;4.65;;;2.80;;
17714;SDS011;8977;50.902;4.314;2023-08-17T04:25:24;3.10;;;2.60;;
17714;SDS011;8977;50.902;4.314;2023-08-17T04:27:51;5.07;;;2.80;;
17714;SDS011;8977;50.902;4.314;2023-08-17T04:30:19;6.75;;;2.80;;
17714;SDS011;8977;50.902;4.314;2023-08-17T04:32:46;5.55;;;2.80;;
17714;SDS011;8977;50.902;4.314;2023-08-17T04:35:17;5.10;;;3.13;;
17714;SDS011;8977;50.902;4.314;2023-08-17T04:37:44;3.22;;;2.70;;
17714;SDS011;8977;50.902;4.314;2023-08-17T04:40:12;5.57;;;2.90;;
17714;SDS011;8977;50.902;4.314;2023-08-17T04:42:39;4.03;;;2.45;;
17714;SDS011;8977;50.902;4.314;2023-08-17T04:45:06;3.85;;;2.90;;
17714;SDS011;8977;50.902;4.314;2023-08-17T04:47:35;6.38;;;2.72;;
17714;SDS011;8977;50.902;4.314;2023-08-17T04:50:02;4.63;;;2.92;;
17714;SDS011;8977;50.902;4.314;2023-08-17T04:52:29;5.07;;;2.55;;
17714;SDS011;8977;50.902;4.314;2023-08-17T04:54:56;3.55;;;2.63;;
17714;SDS011;8977;50.902;4.314;2023-08-17T04:57:23;4.57;;;2.75;;
17714;SDS011;8977;50.902;4.314;2023-08-17T04:59:51;4.38;;;3.08;;
17714;SDS011;8977;50.902;4.314;2023-08-17T05:02:18;3.53;;;2.50;;
17714;SDS011;8977;50.902;4.314;2023-08-17T05:04:47;4.70;;;2.80;;
17714;SDS011;8977;50.902;4.314;2023-08-17T05:07:14;5.38;;;3.10;;
17714;SDS011;8977;50.902;4.314;2023-08-17T05:09:41;3.05;;;2.75;;
17714;SDS011;8977;50.902;4.314;2023-08-17T05:12:08;5.95;;;2.90;;
17714;SDS011;8977;50.902;4.314;2023-08-17T05:14:34;5.20;;;2.90;;
17714;SDS011;8977;50.902;4.314;2023-08-17T05:17:01;6.03;;;2.85;;
17714;SDS011;8977;50.902;4.314;2023-08-17T05:19:28;4.18;;;2.53;;
17714;SDS011;8977;50.902;4.314;2023-08-17T05:21:57;4.47;;;2.80;;
17714;SDS011;8977;50.902;4.314;2023-08-17T05:24:24;5.80;;;3.00;;
17714;SDS011;8977;50.902;4.314;2023-08-17T05:26:51;3.88;;;2.80;;
17714;SDS011;8977;50.902;4.314;2023-08-17T05:29:18;4.03;;;2.90;;
17714;SDS011;8977;50.902;4.314;2023-08-17T05:31:45;5.82;;;2.70;;
17714;SDS011;8977;50.902;4.314;2023-08-17T05:34:12;3.50;;;2.88;;
17714;SDS011;8977;50.902;4.314;2023-08-17T05:36:40;5.05;;;3.13;;
17714;SDS011;8977;50.902;4.314;2023-08-17T05:39:09;3.70;;;2.45;;
17714;SDS011;8977;50.902;4.314;2023-08-17T05:41:35;5.70;;;2.92;;
17714;SDS011;8977;50.902;4.314;2023-08-17T05:44:03;2.72;;;2.53;;
17714;SDS011;8977;50.902;4.314;2023-08-17T05:46:31;5.47;;;3.03;;
17714;SDS011;8977;50.902;4.314;2023-08-17T05:48:58;3.80;;;3.03;;
17714;SDS011;8977;50.902;4.314;2023-08-17T05:51:26;5.60;;;3.08;;
17714;SDS011;8977;50.902;4.314;2023-08-17T05:53:53;4.25;;;2.78;;
17714;SDS011;8977;50.902;4.314;2023-08-17T05:56:22;7.40;;;3.45;;
17714;SDS011;8977;50.902;4.314;2023-08-17T05:58:49;5.63;;;3.30;;
17714;SDS011;8977;50.902;4.314;2023-08-17T06:01:16;4.78;;;2.47;;
17714;SDS011;8977;50.902;4.314;2023-08-17T06:03:43;3.20;;;2.72;;
17714;SDS011;8977;50.902;4.314;2023-08-17T06:06:11;4.55;;;2.92;;
17714;SDS011;8977;50.902;4.314;2023-08-17T06:08:38;6.82;;;2.67;;
17714;SDS011;8977;50.902;4.314;2023-08-17T06:11:05;2.72;;;2.47;;
17714;SDS011;8977;50.902;4.314;2023-08-17T06:13:33;3.65;;;3.20;;
17714;SDS011;8977;50.902;4.314;2023-08-17T06:16:01;6.25;;;2.92;;
17714;SDS011;8977;50.902;4.314;2023-08-17T06:18:28;5.85;;;2.70;;
17714;SDS011;8977;50.902;4.314;2023-08-17T06:20:56;5.28;;;3.28;;
17714;SDS011;8977;50.902;4.314;2023-08-17T06:23:23;4.88;;;3.15;;
17714;SDS011;8977;50.902;4.314;2023-08-17T06:25:50;5.22;;;3.00;;
17714;SDS011;8977;50.902;4.314;2023-08-17T06:28:17;4.80;;;2.97;;
17714;SDS011;8977;50.902;4.314;2023-08-17T06:30:45;3.83;;;2.80;;
17714;SDS011;8977;50.902;4.314;2023-08-17T06:33:12;4.40;;;2.50;;
17714;SDS011;8977;50.902;4.314;2023-08-17T06:35:39;5.82;;;2.75;;
17714;SDS011;8977;50.902;4.314;2023-08-17T06:38:06;4.78;;;2.80;;
17714;SDS011;8977;50.902;4.314;2023-08-17T06:40:33;4.28;;;2.92;;
17714;SDS011;8977;50.902;4.314;2023-08-17T06:43:00;4.10;;;2.63;;
17714;SDS011;8977;50.902;4.314;2023-08-17T06:45:27;5.57;;;3.00;;
17714;SDS011;8977;50.902;4.314;2023-08-17T06:47:55;4.95;;;2.92;;
17714;SDS011;8977;50.902;4.314;2023-08-17T06:50:22;6.05;;;3.50;;
17714;SDS011;8977;50.902;4.314;2023-08-17T06:52:49;4.00;;;2.97;;
17714;SDS011;8977;50.902;4.314;2023-08-17T06:55:16;3.55;;;2.95;;
17714;SDS011;8977;50.902;4.314;2023-08-17T06:57:43;7.88;;;2.97;;
17714;SDS011;8977;50.902;4.314;2023-08-17T07:00:10;4.80;;;3.10;;
17714;SDS011;8977;50.902;4.314;2023-08-17T07:02:38;6.65;;;3.10;;
17714;SDS011;8977;50.902;4.314;2023-08-17T07:05:06;4.55;;;3.05;;
17714;SDS011;8977;50.902;4.314;2023-08-17T07:07:33;5.70;;;3.10;;
17714;SDS011;8977;50.902;4.314;2023-08-17T07:10:01;6.68;;;3.30;;
17714;SDS011;8977;50.902;4.314;2023-08-17T07:12:28;5.90;;;3.20;;
17714;SDS011;8977;50.902;4.314;2023-08-17T07:14:55;5.20;;;3.00;;
17714;SDS011;8977;50.902;4.314;2023-08-17T07:17:21;5.15;;;3.30;;
17714;SDS011;8977;50.902;4.314;2023-08-17T07:19:49;6.20;;;3.40;;
17714;SDS011;8977;50.902;4.314;2023-08-17T07:22:17;8.93;;;3.47;;
17714;SDS011;8977;50.902;4.314;2023-08-17T07:24:44;6.13;;;3.75;;
17714;SDS011;8977;50.902;4.314;2023-08-17T07:27:11;8.30;;;3.42;;
17714;SDS011;8977;50.902;4.314;2023-08-17T07:29:38;4.65;;;3.20;;
17714;SDS011;8977;50.902;4.314;2023-08-17T07:32:04;5.70;;;3.60;;
17714;SDS011;8977;50.902;4.314;2023-08-17T07:34:32;7.32;;;4.00;;
17714;SDS011;8977;50.902;4.314;2023-08-17T07:36:59;6.03;;;3.63;;
17714;SDS011;8977;50.902;4.314;2023-08-17T07:39:27;8.40;;;4.15;;
17714;SDS011;8977;50.902;4.314;2023-08-17T07:41:54;8.75;;;3.90;;
17714;SDS011;8977;50.902;4.314;2023-08-17T07:44:21;9.25;;;4.30;;
17714;SDS011;8977;50.902;4.314;2023-08-17T07:46:48;6.07;;;4.47;;
17714;SDS011;8977;50.902;4.314;2023-08-17T07:49:15;8.13;;;4.65;;
17714;SDS011;8977;50.902;4.314;2023-08-17T07:51:42;8.30;;;4.20;;
17714;SDS011;8977;50.902;4.314;2023-08-17T07:54:09;5.32;;;4.60;;
17714;SDS011;8977;50.902;4.314;2023-08-17T07:56:37;10.45;;;4.47;;
17714;SDS011;8977;50.902;4.314;2023-08-17T07:59:04;8.07;;;4.90;;
17714;SDS011;8977;50.902;4.314;2023-08-17T08:01:31;8.07;;;4.13;;
17714;SDS011;8977;50.902;4.314;2023-08-17T08:03:58;7.47;;;4.20;;
17714;SDS011;8977;50.902;4.314;2023-08-17T08:06:25;7.47;;;4.45;;
17714;SDS011;8977;50.902;4.314;2023-08-17T08:08:52;8.80;;;4.40;;
17714;SDS011;8977;50.902;4.314;2023-08-17T08:11:20;6.85;;;4.18;;
17714;SDS011;8977;50.902;4.314;2023-08-17T08:13:49;6.50;;;3.83;;
17714;SDS011;8977;50.902;4.314;2023-08-17T08:16:16;7.03;;;4.32;;
17714;SDS011;8977;50.902;4.314;2023-08-17T08:18:43;6.43;;;4.38;;
17714;SDS011;8977;50.902;4.314;2023-08-17T08:21:10;7.93;;;4.30;;
17714;SDS011;8977;50.902;4.314;2023-08-17T08:23:37;9.18;;;3.92;;
17714;SDS011;8977;50.902;4.314;2023-08-17T08:26:04;11.48;;;4.15;;
17714;SDS011;8977;50.902;4.314;2023-08-17T08:28:31;7.00;;;4.13;;
17714;SDS011;8977;50.902;4.314;2023-08-17T08:31:02;8.93;;;4.20;;
17714;SDS011;8977;50.902;4.314;2023-08-17T08:33:29;4.88;;;3.63;;
17714;SDS011;8977;50.902;4.314;2023-08-17T08:35:56;7.85;;;4.15;;
17714;SDS011;8977;50.902;4.314;2023-08-17T08:38:23;4.85;;;3.40;;
17714;SDS011;8977;50.902;4.314;2023-08-17T08:40:50;4.30;;;3.30;;
17714;SDS011;8977;50.902;4.314;2023-08-17T08:43:18;6.88;;;3.85;;
17714;SDS011;8977;50.902;4.314;2023-08-17T08:45:45;4.07;;;3.45;;
17714;SDS011;8977;50.902;4.314;2023-08-17T08:48:15;4.78;;;3.22;;
17714;SDS011;8977;50.902;4.314;2023-08-17T08:50:45;5.93;;;3.60;;
17714;SDS011;8977;50.902;4.314;2023-08-17T08:53:13;5.35;;;3.40;;
17714;SDS011;8977;50.902;4.314;2023-08-17T08:55:44;5.65;;;3.53;;
17714;SDS011;8977;50.902;4.314;2023-08-17T08:58:13;4.35;;;3.35;;
17714;SDS011;8977;50.902;4.314;2023-08-17T09:00:46;6.72;;;3.53;;
17714;SDS011;8977;50.902;4.314;2023-08-17T09:03:15;5.78;;;3.63;;
17714;SDS011;8977;50.902;4.314;2023-08-17T09:05:45;6.18;;;3.33;;
17714;SDS011;8977;50.902;4.314;2023-08-17T09:08:14;5.25;;;3.28;;
17714;SDS011;8977;50.902;4.314;2023-08-17T09:10:42;6.10;;;3.58;;
17714;SDS011;8977;50.902;4.314;2023-08-17T09:13:09;6.20;;;3.97;;
17714;SDS011;8977;50.902;4.314;2023-08-17T09:15:36;5.45;;;4.03;;
17714;SDS011;8977;50.902;4.314;2023-08-17T09:18:04;9.40;;;4.47;;
17714;SDS011;8977;50.902;4.314;2023-08-17T09:20:37;4.53;;;3.58;;
17714;SDS011;8977;50.902;4.314;2023-08-17T09:23:09;7.20;;;4.20;;
17714;SDS011;8977;50.902;4.314;2023-08-17T09:25:38;9.02;;;3.75;;
17714;SDS011;8977;50.902;4.314;2023-08-17T09:28:06;8.00;;;4.00;;
17714;SDS011;8977;50.902;4.314;2023-08-17T09:30:47;5.57;;;3.70;;
17714;SDS011;8977;50.902;4.314;2023-08-17T09:33:20;6.65;;;4.28;;
17714;SDS011;8977;50.902;4.314;2023-08-17T09:35:49;7.00;;;4.32;;
17714;SDS011;8977;50.902;4.314;2023-08-17T09:38:16;7.38;;;4.10;;
17714;SDS011;8977;50.902;4.314;2023-08-17T09:40:43;6.53;;;4.32;;
17714;SDS011;8977;50.902;4.314;2023-08-17T09:43:10;5.75;;;4.25;;
17714;SDS011;8977;50.902;4.314;2023-08-17T09:45:38;5.85;;;4.22;;
17714;SDS011;8977;50.902;4.314;2023-08-17T09:48:06;9.60;;;5.05;;
17714;SDS011;8977;50.902;4.314;2023-08-17T09:50:34;8.65;;;4.70;;
17714;SDS011;8977;50.902;4.314;2023-08-17T09:53:03;5.93;;;4.85;;
17714;SDS011;8977;50.902;4.314;2023-08-17T09:55:30;8.52;;;5.60;;
17714;SDS011;8977;50.902;4.314;2023-08-17T09:57:58;10.40;;;5.22;;
17714;SDS011;8977;50.902;4.314;2023-08-17T10:00:25;5.93;;;4.78;;
17714;SDS011;8977;50.902;4.314;2023-08-17T10:02:53;7.95;;;5.00;;
17714;SDS011;8977;50.902;4.314;2023-08-17T10:05:23;8.73;;;4.97;;
17714;SDS011;8977;50.902;4.314;2023-08-17T10:07:56;5.63;;;4.82;;
17714;SDS011;8977;50.902;4.314;2023-08-17T10:10:26;7.65;;;5.07;;
17714;SDS011;8977;50.902;4.314;2023-08-17T10:12:56;8.13;;;4.85;;
17714;SDS011;8977;50.902;4.314;2023-08-17T10:15:29;6.50;;;4.57;;
17714;SDS011;8977;50.902;4.314;2023-08-17T10:17:58;6.80;;;4.60;;
17714;SDS011;8977;50.902;4.314;2023-08-17T10:20:33;6.70;;;4.90;;
17714;SDS011;8977;50.902;4.314;2023-08-17T10:23:05;4.55;;;4.15;;
17714;SDS011;8977;50.902;4.314;2023-08-17T10:25:39;6.05;;;4.22;;
17714;SDS011;8977;50.902;4.314;2023-08-17T10:28:07;5.90;;;4.55;;
17714;SDS011;8977;50.902;4.314;2023-08-17T10:30:35;8.15;;;5.07;;
17714;SDS011;8977;50.902;4.314;2023-08-17T10:33:03;5.03;;;4.10;;
17714;SDS011;8977;50.902;4.314;2023-08-17T10:35:32;7.85;;;4.22;;
17714;SDS011;8977;50.902;4.314;2023-08-17T10:38:01;6.72;;;4.63;;
17714;SDS011;8977;50.902;4.314;2023-08-17T10:40:34;5.97;;;4.05;;
17714;SDS011;8977;50.902;4.314;2023-08-17T10:43:03;10.98;;;4.60;;
17714;SDS011;8977;50.902;4.314;2023-08-17T10:45:31;5.57;;;4.82;;
17714;SDS011;8977;50.902;4.314;2023-08-17T10:51:00;5.75;;;4.88;;
17714;SDS011;8977;50.902;4.314;2023-08-17T10:53:33;5.30;;;3.90;;
17714;SDS011;8977;50.902;4.314;2023-08-17T10:56:06;7.10;;;5.28;;
17714;SDS011;8977;50.902;4.314;2023-08-17T10:58:36;8.25;;;5.28;;
17714;SDS011;8977;50.902;4.314;2023-08-17T11:01:03;6.63;;;5.53;;
17714;SDS011;8977;50.902;4.314;2023-08-17T11:03:30;8.85;;;5.78;;
17714;SDS011;8977;50.902;4.314;2023-08-17T11:05:58;7.35;;;5.15;;
17714;SDS011;8977;50.902;4.314;2023-08-17T11:08:50;7.30;;;4.95;;
17714;SDS011;8977;50.902;4.314;2023-08-17T11:11:19;5.82;;;4.78;;
17714;SDS011;8977;50.902;4.314;2023-08-17T11:13:48;5.35;;;4.88;;
17714;SDS011;8977;50.902;4.314;2023-08-17T11:16:16;5.50;;;4.47;;
17714;SDS011;8977;50.902;4.314;2023-08-17T11:18:44;5.60;;;4.97;;
17714;SDS011;8977;50.902;4.314;2023-08-17T11:21:11;7.80;;;4.97;;
17714;SDS011;8977;50.902;4.314;2023-08-17T11:23:40;8.82;;;4.72;;
17714;SDS011;8977;50.902;4.314;2023-08-17T11:26:07;7.38;;;5.43;;
17714;SDS011;8977;50.902;4.314;2023-08-17T11:28:34;6.68;;;5.40;;
17714;SDS011;8977;50.902;4.314;2023-08-17T11:31:05;7.75;;;5.65;;
17714;SDS011;8977;50.902;4.314;2023-08-17T11:33:33;7.68;;;5.20;;
17714;SDS011;8977;50.902;4.314;2023-08-17T11:36:02;9.38;;;5.60;;
17714;SDS011;8977;50.902;4.314;2023-08-17T11:38:30;5.82;;;5.20;;
17714;SDS011;8977;50.902;4.314;2023-08-17T11:40:58;7.15;;;4.72;;
17714;SDS011;8977;50.902;4.314;2023-08-17T11:43:25;7.18;;;5.47;;
17714;SDS011;8977;50.902;4.314;2023-08-17T11:45:54;7.88;;;5.60;;
17714;SDS011;8977;50.902;4.314;2023-08-17T11:48:22;9.32;;;6.88;;
17714;SDS011;8977;50.902;4.314;2023-08-17T11:50:51;5.70;;;5.10;;
17714;SDS011;8977;50.902;4.314;2023-08-17T11:53:18;7.00;;;5.60;;
17714;SDS011;8977;50.902;4.314;2023-08-17T11:55:45;6.40;;;5.45;;
17714;SDS011;8977;50.902;4.314;2023-08-17T11:58:12;6.32;;;5.72;;
17714;SDS011;8977;50.902;4.314;2023-08-17T12:00:39;9.30;;;6.47;;
17714;SDS011;8977;50.902;4.314;2023-08-17T12:03:12;7.18;;;6.03;;
17714;SDS011;8977;50.902;4.314;2023-08-17T12:05:42;8.85;;;5.95;;
17714;SDS011;8977;50.902;4.314;2023-08-17T12:08:10;8.85;;;6.00;;
17714;SDS011;8977;50.902;4.314;2023-08-17T12:10:39;10.10;;;7.45;;
17714;SDS011;8977;50.902;4.314;2023-08-17T12:13:10;8.80;;;6.60;;
17714;SDS011;8977;50.902;4.314;2023-08-17T12:15:37;7.65;;;6.90;;
17714;SDS011;8977;50.902;4.314;2023-08-17T12:18:05;10.57;;;7.03;;
17714;SDS011;8977;50.902;4.314;2023-08-17T12:20:32;9.55;;;6.95;;
17714;SDS011;8977;50.902;4.314;2023-08-17T12:23:03;8.25;;;6.63;;
17714;SDS011;8977;50.902;4.314;2023-08-17T12:25:30;11.50;;;7.43;;
17714;SDS011;8977;50.902;4.314;2023-08-17T12:27:57;9.38;;;6.82;;
17714;SDS011;8977;50.902;4.314;2023-08-17T12:30:26;11.00;;;7.30;;
17714;SDS011;8977;50.902;4.314;2023-08-17T12:32:54;9.10;;;7.88;;
17714;SDS011;8977;50.902;4.314;2023-08-17T12:35:21;7.45;;;6.60;;
17714;SDS011;8977;50.902;4.314;2023-08-17T12:37:49;9.80;;;7.43;;
17714;SDS011;8977;50.902;4.314;2023-08-17T12:40:18;9.77;;;7.63;;
17714;SDS011;8977;50.902;4.314;2023-08-17T12:42:45;10.93;;;8.05;;
17714;SDS011;8977;50.902;4.314;2023-08-17T12:45:13;10.38;;;9.20;;
17714;SDS011;8977;50.902;4.314;2023-08-17T12:47:40;10.88;;;8.88;;
17714;SDS011;8977;50.902;4.314;2023-08-17T12:50:07;10.88;;;7.65;;
17714;SDS011;8977;50.902;4.314;2023-08-17T12:52:35;10.80;;;9.13;;
17714;SDS011;8977;50.902;4.314;2023-08-17T12:55:02;10.77;;;8.10;;
17714;SDS011;8977;50.902;4.314;2023-08-17T12:57:30;10.80;;;8.40;;
17714;SDS011;8977;50.902;4.314;2023-08-17T12:59:57;10.50;;;8.50;;
17714;SDS011;8977;50.902;4.314;2023-08-17T13:02:24;11.00;;;8.25;;
17714;SDS011;8977;50.902;4.314;2023-08-17T13:04:51;13.43;;;8.70;;
17714;SDS011;8977;50.902;4.314;2023-08-17T13:07:18;10.38;;;8.77;;
17714;SDS011;8977;50.902;4.314;2023-08-17T13:09:45;12.85;;;9.65;;
17714;SDS011;8977;50.902;4.314;2023-08-17T13:12:12;11.70;;;9.30;;
17714;SDS011;8977;50.902;4.314;2023-08-17T13:14:40;9.82;;;8.82;;
17714;SDS011;8977;50.902;4.314;2023-08-17T13:17:07;9.38;;;7.82;;
17714;SDS011;8977;50.902;4.314;2023-08-17T13:19:34;12.32;;;9.55;;
17714;SDS011;8977;50.902;4.314;2023-08-17T13:22:01;14.75;;;9.73;;
17714;SDS011;8977;50.902;4.314;2023-08-17T13:24:29;12.57;;;10.60;;
17714;SDS011;8977;50.902;4.314;2023-08-17T13:26:56;11.95;;;9.43;;
17714;SDS011;8977;50.902;4.314;2023-08-17T13:29:23;15.52;;;11.02;;
17714;SDS011;8977;50.902;4.314;2023-08-17T13:31:51;13.55;;;10.40;;
17714;SDS011;8977;50.902;4.314;2023-08-17T13:34:18;12.32;;;10.30;;
17714;SDS011;8977;50.902;4.314;2023-08-17T13:36:45;11.65;;;9.70;;
17714;SDS011;8977;50.902;4.314;2023-08-17T13:39:12;13.80;;;10.27;;
17714;SDS011;8977;50.902;4.314;2023-08-17T13:41:40;12.75;;;11.10;;
17714;SDS011;8977;50.902;4.314;2023-08-17T13:44:07;11.43;;;10.15;;
17714;SDS011;8977;50.902;4.314;2023-08-17T13:46:34;15.40;;;10.98;;
17714;SDS011;8977;50.902;4.314;2023-08-17T13:49:03;11.95;;;10.50;;
17714;SDS011;8977;50.902;4.314;2023-08-17T13:51:30;12.05;;;9.93;;
17714;SDS011;8977;50.902;4.314;2023-08-17T13:53:57;11.93;;;10.55;;
17714;SDS011;8977;50.902;4.314;2023-08-17T13:56:24;12.93;;;10.38;;
17714;SDS011;8977;50.902;4.314;2023-08-17T13:58:51;11.80;;;10.40;;
17714;SDS011;8977;50.902;4.314;2023-08-17T14:01:18;14.07;;;11.50;;
17714;SDS011;8977;50.902;4.314;2023-08-17T14:03:45;14.85;;;10.85;;
17714;SDS011;8977;50.902;4.314;2023-08-17T14:06:13;12.88;;;10.27;;
17714;SDS011;8977;50.902;4.314;2023-08-17T14:08:40;12.18;;;10.98;;
17714;SDS011;8977;50.902;4.314;2023-08-17T14:11:07;12.13;;;9.65;;
17714;SDS011;8977;50.902;4.314;2023-08-17T14:13:34;12.43;;;10.77;;
17714;SDS011;8977;50.902;4.314;2023-08-17T14:16:01;14.20;;;9.80;;
17714;SDS011;8977;50.902;4.314;2023-08-17T14:18:28;11.68;;;10.35;;
17714;SDS011;8977;50.902;4.314;2023-08-17T14:20:55;13.00;;;10.05;;
17714;SDS011;8977;50.902;4.314;2023-08-17T14:23:24;10.60;;;9.38;;
17714;SDS011;8977;50.902;4.314;2023-08-17T14:25:51;11.98;;;9.38;;
17714;SDS011;8977;50.902;4.314;2023-08-17T14:28:18;11.75;;;9.35;;
17714;SDS011;8977;50.902;4.314;2023-08-17T14:30:45;10.30;;;9.15;;
17714;SDS011;8977;50.902;4.314;2023-08-17T14:33:12;11.15;;;8.68;;
17714;SDS011;8977;50.902;4.314;2023-08-17T14:35:40;13.02;;;9.80;;
17714;SDS011;8977;50.902;4.314;2023-08-17T14:38:07;9.45;;;8.45;;
17714;SDS011;8977;50.902;4.314;2023-08-17T14:40:41;17.52;;;10.57;;
17714;SDS011;8977;50.902;4.314;2023-08-17T14:43:09;11.27;;;9.60;;
17714;SDS011;8977;50.902;4.314;2023-08-17T14:45:36;11.45;;;9.18;;
17714;SDS011;8977;50.902;4.314;2023-08-17T14:48:05;9.55;;;7.80;;
17714;SDS011;8977;50.902;4.314;2023-08-17T14:50:32;10.13;;;8.80;;
17714;SDS011;8977;50.902;4.314;2023-08-17T14:52:59;10.43;;;9.30;;
17714;SDS011;8977;50.902;4.314;2023-08-17T14:55:28;12.25;;;8.70;;
17714;SDS011;8977;50.902;4.314;2023-08-17T14:57:56;10.85;;;9.00;;
17714;SDS011;8977;50.902;4.314;2023-08-17T15:00:23;11.82;;;8.95;;
17714;SDS011;8977;50.902;4.314;2023-08-17T15:02:51;10.60;;;8.30;;
17714;SDS011;8977;50.902;4.314;2023-08-17T15:05:18;8.65;;;7.75;;